Nearby METAR Reports

 

ENCN - Kristiansand/Kje, Norway
Distance from station: N 17km
Oppdatert: 01/03/2024 04:20
Lett regn, Hovedsaklig skyet
Lett regn, Hovedsaklig skyet
 Vind fra SØ
Vind: SØ 19 km/h
Temperatur: 6°C
Wind Chill: 3°C
Duggpunkt: 5°C
Fuktighet: 93%
Barometer: 1001 hPa
Oversikt: Lett regn
Clouds: Hovedsaklig skyet
Visibility: 4 km
Cloud details: Hovedsaklig skyet 152 m
2024/03/01 03:20 ENCN 010320Z AUTO 14010KT 110V170 3900 -RA BKN005/// 06/05 Q1001 RERA
EKSN - Sindal Airport, Denmark
Distance from station: ØSØ 145km
Oppdatert: 30/12/2021 14:50
NOT Current
Mist, Hovedsaklig skyet
Mist, Hovedsaklig skyet
 Vind fra SV
Vind: SV 26 km/h
Temperatur: 7°C
Wind Chill: 3°C
Duggpunkt: 7°C
Fuktighet: 100%
Barometer: 999 hPa
Oversikt: Mist
Clouds: Hovedsaklig skyet
Visibility: 5 km
Cloud details: Delvis skyet 183 m
Hovedsaklig skyet 244 m
2021/12/30 13:50 EKSN 301350Z 23014KT 4500 BR SCT006 BKN008 07/07 Q0999
 
EKYT - Alborg, Denmark
Distance from station: SØ 153km
Oppdatert: 01/03/2024 04:20
Hovedsaklig skyet
Hovedsaklig skyet
 Vind fra SØ
Vind: SØ 22 km/h
Temperatur: 5°C
Wind Chill: 1°C
Duggpunkt: 4°C
Fuktighet: 93%
Barometer: 1003 hPa
Clouds: Hovedsaklig skyet
Visibility: 7 km
Cloud details: Delvis skyet 1829 m
Hovedsaklig skyet 3962 m
2024/03/01 03:20 EKYT 010320Z AUTO 13012KT 7000 SCT060/// BKN130/// 05/04 Q1003
ENSN - Skien/Geiterygge, Norway
Distance from station: NØ 153km
Oppdatert: 09/11/2015 09:50
NOT Current
Klart
Klart
 Vind fra SSV
Vind: SSV 19 km/h, Vindkast: 41 km/h
Temperatur: 7°C
Wind Chill: 4°C
Duggpunkt: 3°C
Fuktighet: 76%
Barometer: 1000 hPa
Oversikt: Klart
Visibility: greater than 10 km
2015/11/09 08:50 ENSN 090850Z 20010G22KT 150V240 CAVOK 07/03 Q1000
 
ENZV - Stavanger/Sola(A, Norway
Distance from station: NV 166km
Oppdatert: 01/03/2024 04:20
Lett regn, Overskyet
Lett regn, Overskyet
 Vind fra calm
Vind: Stille
Temperatur: 4°C
Duggpunkt: 4°C
Fuktighet: 100%
Barometer: 998 hPa
Oversikt: Lett regn
Clouds: Overskyet
Visibility: 5 km
Cloud details: Few Clouds 0 m
Overskyet 518 m
2024/03/01 03:20 ENZV 010320Z 00000KT 4600 -RA FEW000 OVC017 04/04 Q0998
ENNO - Notodden, Norway
Distance from station: NNØ 182km
Oppdatert: 29/02/2024 18:50
NOT Current
Lett regn, Overskyet
Lett regn, Overskyet
 Vind fra Ø
Vind: Ø 9 km/h
Temperatur: 6°C
Wind Chill: 4°C
Duggpunkt: 4°C
Fuktighet: 87%
Barometer: 1002 hPa
Oversikt: Lett regn
Clouds: Overskyet
Visibility: 10 km
Cloud details: Overskyet 274 m
2024/02/29 17:50 ENNO 291750Z 09005KT 9999 -RA OVC009 06/04 Q1002
 
ENTO - Torp (civ/Nor-Af, Norway
Distance from station: NØ 183km
Oppdatert: 01/03/2024 04:20
Lett regn, Overskyet
Lett regn, Overskyet
 Vind fra SSØ
Vind: SSØ 24 km/h
Temperatur: 4°C
Wind Chill: -1°C
Duggpunkt: 4°C
Fuktighet: 100%
Barometer: 1004 hPa
Oversikt: Lett regn
Clouds: Overskyet
Visibility: 1 km
Cloud details: Overskyet 30 m
2024/03/01 03:20 ENTO 010320Z AUTO 16013KT 1300 R18/P2000N R36/P2000N -RA OVC001/// 04/04 Q1004
EKKA - Karup (dan-Afb), Denmark
Distance from station: SSØ 209km
Oppdatert: 01/03/2024 04:20
Hovedsaklig skyet
Hovedsaklig skyet
 Vind fra SØ
Vind: SØ 17 km/h
Temperatur: 6°C
Wind Chill: 3°C
Duggpunkt: 4°C
Fuktighet: 87%
Barometer: 1002 hPa
Clouds: Hovedsaklig skyet
Visibility: 10 km
Cloud details: Delvis skyet 732 m
Hovedsaklig skyet 1463 m
2024/03/01 03:20 EKKA 010320Z AUTO 13009KT 9999 SCT024/// BKN048/// 06/04 Q1002
 
ENHD - Haugesund/Karmoy, Norway
Distance from station: NV 216km
Oppdatert: 01/03/2024 04:20
Lett regn
Lett regn
 Vind fra Ø
Vind: Ø 9 km/h
Oversikt: Lett regn
Visibility: 10 km
2024/03/01 03:20 ENHD 010320Z AUTO 10005KT 9999 -RA ///026/// 04/03 Q0998
ENRY - Rygge (nor-Afb), Norway
Distance from station: NØ 216km
Oppdatert: 01/03/2024 04:20
Lett regn, Overskyet
Lett regn, Overskyet
 Vind fra SSØ
Vind: SSØ 24 km/h
Temperatur: 4°C
Wind Chill: -1°C
Duggpunkt: 3°C
Fuktighet: 93%
Barometer: 1004 hPa
Oversikt: Lett regn
Clouds: Overskyet
Visibility: 2 km
Cloud details: Delvis skyet 61 m
Hovedsaklig skyet 152 m
Overskyet 183 m
2024/03/01 03:20 ENRY 010320Z AUTO 16013KT 2200 -RA SCT002/// BKN005/// OVC006/// 04/03 Q1004 REDZ
 
ESGP - Goteborg/Save (a, Sweden
Distance from station: Ø 230km
Oppdatert: 01/03/2024 04:20
Few Clouds
Few Clouds
 Vind fra SØ
Vind: SØ 17 km/h
Temperatur: 3°C
Wind Chill: -1°C
Duggpunkt: 1°C
Fuktighet: 87%
Barometer: 1006 hPa
Clouds: Few Clouds
Visibility: 9 km
Cloud details: Few Clouds 4267 m
2024/03/01 03:20 ESGP 010320Z AUTO 13009KT 9000 FEW140/// 03/01 Q1006
EKVJ - Stauning Airport, Denmark
Distance from station: S 233km
Oppdatert: 01/03/2024 04:20
Overskyet
Overskyet
 Vind fra ØSØ
Vind: ØSØ 17 km/h
Barometer: 1001 hPa
Clouds: Overskyet
Visibility: 10 km
Cloud details: Hovedsaklig skyet 640 m
Overskyet 792 m
2024/03/01 03:20 EKVJ 010320Z AUTO 12009KT 9999 BKN021/// OVC026/// ///// Q1001
 
ENSO - Stord/Soerstokke, Norway
Distance from station: NV 246km
Oppdatert: 29/02/2024 19:20
NOT Current
Hovedsaklig skyet
Hovedsaklig skyet
 Vind fra SSØ
Vind: SSØ 24 km/h
Temperatur: 6°C
Wind Chill: 2°C
Duggpunkt: 5°C
Fuktighet: 93%
Barometer: 998 hPa
Clouds: Hovedsaklig skyet
Visibility: 10 km
Cloud details: Few Clouds 427 m
Delvis skyet 549 m
Hovedsaklig skyet 5182 m
2024/02/29 18:20 ENSO 291820Z 16013KT 9999 FEW014 SCT018 BKN170 06/05 Q0998
EKAH - Tirstrup (civ/Mi, Denmark
Distance from station: SØ 252km
Oppdatert: 01/03/2024 04:20
Hovedsaklig skyet
Hovedsaklig skyet
 Vind fra SØ
Vind: SØ 20 km/h
Temperatur: 5°C
Wind Chill: 1°C
Duggpunkt: 3°C
Fuktighet: 87%
Barometer: 1004 hPa
Clouds: Hovedsaklig skyet
Visibility: 5 km
Cloud details: Hovedsaklig skyet 3353 m
2024/03/01 03:20 EKAH 010320Z AUTO 14011KT 5000 BKN110/// 05/03 Q1004
 
ESGT - Trollhattan (pvt, Sweden
Distance from station: Ø 255km
Oppdatert: 01/03/2024 04:20
Hovedsaklig skyet
Hovedsaklig skyet
 Vind fra SØ
Vind: SØ 13 km/h
Temperatur: 1°C
Wind Chill: -3°C
Duggpunkt: 0°C
Fuktighet: 93%
Barometer: 1007 hPa
Clouds: Hovedsaklig skyet
Visibility: 9 km
Cloud details: Hovedsaklig skyet 3658 m
2024/03/01 03:20 ESGT 010320Z AUTO 14007KT 9000 BKN120/// 01/M00 Q1007
ESGG - Goteborg/Landvet, Sweden
Distance from station: Ø 257km
Oppdatert: 01/03/2024 04:20
Mist, Few clouds
Mist, Few clouds
 Vind fra SØ
Vind: SØ 17 km/h
Temperatur: 0°C
Wind Chill: -4°C
Duggpunkt: 0°C
Fuktighet: 100%
Barometer: 1006 hPa
Oversikt: Mist
Clouds: Few Clouds
Visibility: 5 km
Cloud details: Few Clouds 122 m
2024/03/01 03:20 ESGG 010320Z 14009KT 5000 BR FEW004 00/00 Q1006
 
EKBI - Billund Airport, Denmark
Distance from station: SSØ 269km
Oppdatert: 01/03/2024 04:20
Hovedsaklig skyet
Hovedsaklig skyet
 Vind fra SØ
Vind: SØ 13 km/h
Temperatur: 5°C
Wind Chill: 2°C
Duggpunkt: 3°C
Fuktighet: 87%
Barometer: 1002 hPa
Clouds: Hovedsaklig skyet
Visibility: 6 km
Cloud details: Few Clouds 975 m
Hovedsaklig skyet 1890 m
2024/03/01 03:20 EKBI 010320Z AUTO 13007KT 100V160 6000 FEW032/// BKN062/// 05/03 Q1002
EKHN - Horns Rev B Heli, Denmark
Distance from station: S 274km
Oppdatert: 09/08/2016 14:20
NOT Current
Few Clouds
Few Clouds
 Vind fra VNV
Vind: VNV 50 km/h, Vindkast: 72 km/h
Temperatur: 14°C
Duggpunkt: 10°C
Fuktighet: 77%
Barometer: 1018 hPa
Clouds: Few Clouds
Visibility: 10 km
Cloud details: Few Clouds 1158 m
Few Clouds 2438 m
2016/08/09 12:20 EKHN 091220Z AUTO 29027G39KT 270V340 9999NDV FEW038/// FEW080/// 14/10 Q1018
 
ESIB - Satenas (swe-Afb, Sweden
Distance from station: Ø 277km
Oppdatert: 01/03/2024 04:20
Few Clouds
Few Clouds
 Vind fra SØ
Vind: SØ 17 km/h
Temperatur: 1°C
Wind Chill: -3°C
Duggpunkt: 0°C
Fuktighet: 93%
Barometer: 1007 hPa
Clouds: Few Clouds
Visibility: 10 km
Cloud details: Few Clouds 3962 m
2024/03/01 03:20 ESIB 010320Z AUTO 14009KT 9999 FEW130/// 01/M00 Q1007
EKHR - Horns Rev B Heli, Denmark
Distance from station: S 282km
Oppdatert: 04/10/2016 06:20
NOT Current
Klart
Klart
 Vind fra Ø
Vind: Ø 4 km/h
Temperatur: 11°C
Duggpunkt: -49°C
Fuktighet: 0%
Barometer: 1038 hPa
Clouds: Klart
Visibility: 10 km
2016/10/04 04:20 EKHR 040420Z AUTO 08002KT 9999NDV NCD 11/M49 Q1038